Time;durP1;ratioP1;P1;durP2;ratioP2;P2;SDS_P1;SDS_P2;PMS_P1;PMS_P2;Temp;Humidity;BMP_temperature;BMP_pressure;BME280_temperature;BME280_humidity;BME280_pressure;Samples;Min_cycle;Max_cycle;Signal;HPM_P1;HPM_P2
2023/07/21 18:38:32;;;;;;;;;13.00;12.75;;;;;;;;5084921;27;14282;-71
2023/07/21 18:40:57;;;;;;;;;11.00;10.00;;;;;;;;5104889;28;8851;-74
2023/07/21 18:43:22;;;;;;;;;11.33;11.33;;;;;;;;5101401;28;8812;-71
2023/07/21 18:45:48;;;;;;;;;12.00;11.00;;;;;;;;5038666;27;10709;-69
2023/07/21 18:48:14;;;;;;;;;12.00;10.33;;;;;;;;5024975;28;8832;-69
2023/07/21 18:50:40;;;;;;;;;14.00;11.50;;;;;;;;5037218;28;8796;-70
2023/07/21 18:53:06;;;;;;;;;9.50;8.50;;;;;;;;5043284;28;8824;-69
2023/07/21 18:55:31;;;;;;;;;11.00;10.00;;;;;;;;5045717;28;8824;-69
2023/07/21 18:58:01;;;;;;;;;12.00;9.67;;;;;;;;5045764;28;8841;-69
2023/07/21 19:00:26;;;;;;;;;8.75;8.75;;;;;;;;5043146;28;8823;-69
2023/07/21 19:02:52;;;;;;;;;11.00;10.00;;;;;;;;5045547;28;8796;-69
2023/07/21 19:05:17;;;;;;;;;10.00;8.33;;;;;;;;5045840;28;8818;-68
2023/07/21 19:07:43;;;;;;;;;10.67;9.33;;;;;;;;5045189;28;8792;-69
2023/07/21 19:10:08;;;;;;;;;9.00;9.00;;;;;;;;5045830;28;8800;-70
2023/07/21 19:12:33;;;;;;;;;9.00;8.67;;;;;;;;5045947;28;8815;-70
2023/07/21 19:14:59;;;;;;;;;10.00;8.67;;;;;;;;5044198;28;8925;-73
2023/07/21 19:17:25;;;;;;;;;12.00;9.00;;;;;;;;5041410;28;8855;-69
2023/07/21 19:19:51;;;;;;;;;16.00;11.33;;;;;;;;5044251;28;8843;-70
2023/07/21 19:22:16;;;;;;;;;13.33;12.00;;;;;;;;5045805;28;8804;-70
2023/07/21 19:24:41;;;;;;;;;14.00;13.00;;;;;;;;5045780;28;11619;-70
2023/07/21 19:27:07;;;;;;;;;14.00;11.00;;;;;;;;5045804;28;8815;-69
2023/07/21 19:29:32;;;;;;;;;15.00;11.67;;;;;;;;5045860;28;8800;-70
2023/07/21 19:31:57;;;;;;;;;10.00;10.00;;;;;;;;5045769;28;8830;-70
2023/07/21 19:34:23;;;;;;;;;10.67;8.00;;;;;;;;5044299;28;8808;-69
2023/07/21 19:36:48;;;;;;;;;8.67;7.00;;;;;;;;5045329;28;8886;-70
2023/07/21 19:39:13;;;;;;;;;9.00;8.00;;;;;;;;5045184;28;8947;-69
2023/07/21 19:41:39;;;;;;;;;9.00;9.00;;;;;;;;5044820;28;8792;-70
2023/07/21 19:44:04;;;;;;;;;8.00;7.00;;;;;;;;5045036;28;8811;-71
2023/07/21 19:46:31;;;;;;;;;11.67;8.67;;;;;;;;5045122;28;8804;-70
2023/07/21 19:48:57;;;;;;;;;11.50;8.75;;;;;;;;5036091;28;8804;-70
2023/07/21 19:51:22;;;;;;;;;11.67;11.67;;;;;;;;5027548;28;8864;-71
2023/07/21 19:53:48;;;;;;;;;9.00;8.00;;;;;;;;5031112;28;8812;-71
2023/07/21 19:56:14;;;;;;;;;11.33;8.00;;;;;;;;5031599;28;9580;-71
2023/07/21 19:58:39;;;;;;;;;8.75;8.75;;;;;;;;5024733;28;9529;-71
2023/07/21 20:01:05;;;;;;;;;10.00;9.33;;;;;;;;5020508;28;8826;-70
2023/07/21 20:03:30;;;;;;;;;7.33;7.33;;;;;;;;5011589;28;8872;-71
2023/07/21 20:05:56;;;;;;;;;8.67;6.67;;;;;;;;5012024;28;8791;-72
2023/07/21 20:08:21;;;;;;;;;7.67;7.67;;;;;;;;5031359;28;9013;-71
2023/07/21 20:10:49;;;;;;;;;9.00;9.00;;;;;;;;5031507;28;8893;-72
2023/07/21 20:13:16;;;;;;;;;8.00;7.00;;;;;;;;5030131;28;8905;-71
2023/07/21 20:15:41;;;;;;;;;9.00;7.75;;;;;;;;5027458;28;10929;-72
2023/07/21 20:18:07;;;;;;;;;9.33;7.00;;;;;;;;5052642;28;9661;-71
2023/07/21 20:20:33;;;;;;;;;8.00;7.75;;;;;;;;5051332;28;9030;-72
2023/07/21 20:22:58;;;;;;;;;11.67;9.67;;;;;;;;5049701;28;8814;-71
2023/07/21 20:25:24;;;;;;;;;8.33;7.33;;;;;;;;5049752;28;8826;-71
2023/07/21 20:27:49;;;;;;;;;8.67;7.67;;;;;;;;5050242;28;8795;-70
2023/07/21 20:30:14;;;;;;;;;9.67;8.00;;;;;;;;5042103;28;8809;-71
2023/07/21 20:32:43;;;;;;;;;10.33;8.67;;;;;;;;5030787;28;8923;-71
2023/07/21 20:35:09;;;;;;;;;7.50;7.00;;;;;;;;5031019;28;8805;-72
2023/07/21 20:37:34;;;;;;;;;7.00;7.00;;;;;;;;5048671;28;8865;-71
2023/07/21 20:39:59;;;;;;;;;8.00;7.00;;;;;;;;5050173;28;9573;-70
2023/07/21 20:42:25;;;;;;;;;5.00;5.00;;;;;;;;5050319;28;8815;-70
2023/07/21 20:44:50;;;;;;;;;7.67;7.67;;;;;;;;5050132;28;8783;-70
2023/07/21 20:47:16;;;;;;;;;8.00;7.67;;;;;;;;5050062;28;8799;-71
2023/07/21 20:49:44;;;;;;;;;9.33;9.33;;;;;;;;5049875;28;8783;-71
2023/07/21 20:52:09;;;;;;;;;9.50;7.50;;;;;;;;5046233;28;8822;-72
2023/07/21 20:54:35;;;;;;;;;8.00;8.00;;;;;;;;5050115;28;8795;-71
2023/07/21 20:57:00;;;;;;;;;10.33;8.33;;;;;;;;5049845;28;8819;-70
2023/07/21 20:59:25;;;;;;;;;8.67;8.00;;;;;;;;5046413;28;8807;-71
2023/07/21 21:01:51;;;;;;;;;7.67;7.67;;;;;;;;5047755;28;8884;-73
2023/07/21 21:04:17;;;;;;;;;9.00;8.00;;;;;;;;5049822;28;9506;-71
2023/07/21 21:06:42;;;;;;;;;10.00;10.00;;;;;;;;5049638;28;8854;-70
2023/07/21 21:09:09;;;;;;;;;9.33;9.33;;;;;;;;5049259;28;8822;-71
2023/07/21 21:11:34;;;;;;;;;8.50;8.50;;;;;;;;5048997;28;8786;-69
2023/07/21 21:14:00;;;;;;;;;10.33;8.00;;;;;;;;5049609;28;8872;-70
2023/07/21 21:16:25;;;;;;;;;7.67;6.00;;;;;;;;5049196;28;8806;-69
2023/07/21 21:18:50;;;;;;;;;7.00;7.00;;;;;;;;5049206;28;8787;-70
2023/07/21 21:21:16;;;;;;;;;7.00;7.00;;;;;;;;5049138;28;8799;-70
2023/07/21 21:23:41;;;;;;;;;9.00;7.67;;;;;;;;5048942;28;8825;-69
2023/07/21 21:26:06;;;;;;;;;6.33;6.33;;;;;;;;5049096;28;8821;-68
2023/07/21 21:28:32;;;;;;;;;7.67;7.67;;;;;;;;5049149;28;8941;-69
2023/07/21 21:30:58;;;;;;;;;9.67;6.67;;;;;;;;5048820;28;9591;-69
2023/07/21 21:33:24;;;;;;;;;8.00;7.75;;;;;;;;5049059;28;8798;-69
2023/07/21 21:35:49;;;;;;;;;7.00;7.00;;;;;;;;5047399;28;8814;-69
2023/07/21 21:38:14;;;;;;;;;7.33;6.00;;;;;;;;5048592;28;8815;-69
2023/07/21 21:40:40;;;;;;;;;7.33;7.00;;;;;;;;5049075;28;8841;-68
2023/07/21 21:43:05;;;;;;;;;11.00;9.00;;;;;;;;5048607;28;8815;-69
2023/07/21 21:45:33;;;;;;;;;8.00;7.00;;;;;;;;5045067;28;8829;-69
2023/07/21 21:47:58;;;;;;;;;8.00;8.00;;;;;;;;5047087;28;8807;-70
2023/07/21 21:50:23;;;;;;;;;6.00;6.00;;;;;;;;5048706;28;8845;-69
2023/07/21 21:52:49;;;;;;;;;5.67;5.67;;;;;;;;5048491;28;8811;-68
2023/07/21 21:55:14;;;;;;;;;7.67;7.67;;;;;;;;5048827;28;8848;-69
2023/07/21 21:57:39;;;;;;;;;10.00;7.00;;;;;;;;5048614;28;8843;-69
2023/07/21 22:00:05;;;;;;;;;7.00;7.00;;;;;;;;5048769;28;9536;-69
2023/07/21 22:02:30;;;;;;;;;7.00;7.00;;;;;;;;5048571;28;8921;-70
2023/07/21 22:04:56;;;;;;;;;5.33;5.33;;;;;;;;5048603;28;8803;-69
2023/07/21 22:07:21;;;;;;;;;8.67;8.67;;;;;;;;5048427;28;8835;-69
2023/07/21 22:09:46;;;;;;;;;4.67;3.33;;;;;;;;5046942;28;8833;-70
2023/07/21 22:12:12;;;;;;;;;9.00;7.67;;;;;;;;5044988;28;8867;-70
2023/07/21 22:14:38;;;;;;;;;11.33;9.33;;;;;;;;5048336;28;8827;-70
2023/07/21 22:17:06;;;;;;;;;7.00;6.00;;;;;;;;5049044;28;8916;-71
2023/07/21 22:19:31;;;;;;;;;8.50;8.25;;;;;;;;5046748;28;11488;-70
2023/07/21 22:21:57;;;;;;;;;8.00;7.00;;;;;;;;5048538;28;8876;-69
2023/07/21 22:24:23;;;;;;;;;6.33;5.67;;;;;;;;5047880;28;8945;-68
2023/07/21 22:26:49;;;;;;;;;6.50;6.50;;;;;;;;5048374;28;8814;-69
2023/07/21 22:29:14;;;;;;;;;8.00;7.00;;;;;;;;5048411;28;9063;-69
2023/07/21 22:31:39;;;;;;;;;8.00;6.33;;;;;;;;5048427;28;8803;-70
2023/07/21 22:34:05;;;;;;;;;9.00;6.33;;;;;;;;5048420;28;10653;-70
2023/07/21 22:36:30;;;;;;;;;6.00;6.00;;;;;;;;5046647;28;8847;-70
2023/07/21 22:38:56;;;;;;;;;9.33;7.67;;;;;;;;5045273;28;8795;-70
2023/07/21 22:41:21;;;;;;;;;8.00;6.67;;;;;;;;5046875;28;8861;-70
2023/07/21 22:43:46;;;;;;;;;9.00;7.00;;;;;;;;5048317;28;8900;-70
2023/07/21 22:46:12;;;;;;;;;8.00;6.00;;;;;;;;5046784;28;8857;-71
2023/07/21 22:48:37;;;;;;;;;7.00;6.67;;;;;;;;5046890;28;8829;-71
2023/07/21 22:51:06;;;;;;;;;6.33;6.00;;;;;;;;5048420;28;8802;-70
2023/07/21 22:53:31;;;;;;;;;10.00;6.50;;;;;;;;5048379;28;8875;-71
2023/07/21 22:55:58;;;;;;;;;7.33;6.67;;;;;;;;5047267;28;8811;-70
2023/07/21 22:58:23;;;;;;;;;6.00;6.00;;;;;;;;5046748;28;8875;-70
2023/07/21 23:00:48;;;;;;;;;7.00;7.00;;;;;;;;5048152;28;8819;-70
2023/07/21 23:03:16;;;;;;;;;6.67;6.67;;;;;;;;5048248;28;8802;-70
2023/07/21 23:05:44;;;;;;;;;6.50;6.00;;;;;;;;5048744;28;8872;-69
2023/07/21 23:08:10;;;;;;;;;7.75;6.25;;;;;;;;5047249;28;8834;-69
2023/07/21 23:10:36;;;;;;;;;8.67;7.67;;;;;;;;5048451;28;8810;-70
